Young, Canada
Current Conditions -  °F | °C
As of 2:00 AM on Wednesday 22 Oct 2014 (Local Time) from CYXE Reporting Station
Broken Clouds Broken Clouds  
Wind Chill: 52°   Ceiling: 22000
Heat Index: 52°   Visibility: 15mi
Dew Point: 43°   Wind: 12mph
Humidity: 71%   Direction: 10°N
Pressure: 29.64"   Gusts: 17mph
Location:  51.77°N, 105.75°W
Report Text: CYXE 220800Z 01010G15KT 15SM SCT150 BKN220 11/06 A2964 RMK AC3CI3 SLP042 DENSITY ALT 1900FT
Loading
Personal Weather Stations






























Interactive Weather Map
Tropical Storm Tracking
New forecast layout! Learn more

10-Day Weather Forecast

Advertisements
Track Severe Weather on mobile